Terminal Aerodrome Forecast
Issued by NWS Charleston, WV

Current Version | Previous Version | Text Only | Print | Product List | Glossary Off
Versions: 1 2 3 4 5 6 7 8 9 10 11 12 13 14 15 16 17 18 19 20 21 22 23 24 25

000
FTUS41 KRLX 030231 AAA
TAFCRW
TAF AMD
KCRW 030231Z 0303/0324 VRB03KT 6SM BR SCT001 BKN050
      TEMPO 0303/0305 SCT001 BKN012
     FM030500 VRB03KT 6SM BR OVC012
     FM030800 00000KT 6SM BR OVC010
     FM031300 VRB03KT P6SM BKN008
     FM031600 28004KT P6SM BKN015
     FM031700 28005KT P6SM BKN025
     FM032100 29006KT P6SM BKN035=

USA.gov is the U.S. government's official web portal to all federal, state and local government web resources and services.